KFAF/FAF METAR and TAF weather

Enter ICAO airport designator
Station Type Date Time Source
KFAF METAR 2022/06/27 07:56 UTC NOAA

KFAF 270756Z AUTO 19008KT 10SM CLR 23/19 A3003 RMK AO2 SLP173 T02280191 $


Station Type Date Time Source
KFAF Decoded METAR 2022/06/27 07:56 UTC NOAA

Fort Eustis / Felker, VA, United States (KFAF) 37-08N 076-37W
Jun 27, 2022 - 03:56 AM EDT / 2022.06.27 0756 UTC
Wind: from the S (190 degrees) at 9 MPH (8 KT):0
Visibility: 10 mile(s):0
Sky conditions: clear
Temperature: 73.0 F (22.8 C)
Dew Point: 66.4 F (19.1 C)
Relative Humidity: 79%
Pressure (altimeter): 30.03 in. Hg (1016 hPa)
ob: KFAF 270756Z AUTO 19008KT 10SM CLR 23/19 A3003 RMK AO2 SLP173 T02280191
cycle: 8

Station Type Date Time Source
KFAF TAF 2022/06/25 02:59 UTC NOAA

TAF KFAF 250146Z 2502/2608 10003KT 6000 BR FEW030 QNH3009INS
BECMG 2513/2514 VRB03KT 9999 NSW SKC QNH3015INS TX28/2518Z TN16/2509Z LAST NO
AMDS AFT 2503 NEXT 2710

Example: see airport list